Time;durP1;ratioP1;P1;durP2;ratioP2;P2;SDS_P1;SDS_P2;PMS_P1;PMS_P2;Temp;Humidity;BMP_temperature;BMP_pressure;BME280_temperature;BME280_humidity;BME280_pressure;Samples;Min_cycle;Max_cycle;Signal;HPM_P1;HPM_P2
2023/06/27 00:01:05;;;;;;;7.40;1.38;;;15.70;99.90;;;;;;5012537;28;20218;-88
2023/06/27 00:03:37;;;;;;;7.72;1.67;;;15.80;99.90;;;;;;5013516;28;20241;-88
2023/06/27 00:06:09;;;;;;;2.95;1.23;;;15.90;99.90;;;;;;5013377;28;20202;-88
2023/06/27 00:08:41;;;;;;;33.42;3.25;;;15.80;99.90;;;;;;5013019;28;20198;-89
2023/06/27 00:11:15;;;;;;;7.68;1.10;;;15.90;99.90;;;;;;5013569;28;20705;-89
2023/06/27 00:13:47;;;;;;;3.90;1.00;;;15.90;99.90;;;;;;5013810;28;20197;-90
2023/06/27 00:16:19;;;;;;;8.88;1.30;;;15.90;99.90;;;;;;5013302;28;20198;-90
2023/06/27 00:18:51;;;;;;;38.45;2.80;;;16.00;99.90;;;;;;5014014;28;20210;-89
2023/06/27 00:21:28;;;;;;;5.65;1.25;;;16.10;99.90;;;;;;5014133;28;20218;-90
2023/06/27 00:23:59;;;;;;;3.58;1.00;;;16.10;99.90;;;;;;5032570;28;20284;-90
2023/06/27 00:26:33;;;;;;;4.13;1.10;;;16.20;99.90;;;;;;5015017;28;20631;-89
2023/06/27 00:29:04;;;;;;;6.30;1.30;;;16.20;99.90;;;;;;5016242;28;20206;-88
2023/06/27 00:31:36;;;;;;;4.28;1.10;;;16.30;99.90;;;;;;5020480;28;20261;-89
2023/06/27 00:34:07;;;;;;;8.52;1.60;;;16.40;99.90;;;;;;5022094;28;20613;-89
2023/06/27 00:36:37;;;;;;;8.50;1.80;;;16.30;99.90;;;;;;5017295;28;20210;-88
2023/06/27 00:39:09;;;;;;;5.07;1.10;;;16.20;99.90;;;;;;5016090;28;20214;-89
2023/06/27 00:41:42;;;;;;;5.20;1.15;;;16.20;99.90;;;;;;5014883;28;20410;-89
2023/06/27 00:44:14;;;;;;;4.47;1.30;;;16.20;99.90;;;;;;5016868;28;20190;-90
2023/06/27 00:46:45;;;;;;;3.90;1.13;;;16.40;99.90;;;;;;5035247;28;20204;-90
2023/06/27 00:49:18;;;;;;;5.30;1.20;;;16.40;99.90;;;;;;5023930;28;20661;-88
2023/06/27 00:51:52;;;;;;;4.35;1.40;;;16.50;99.90;;;;;;5015780;28;20222;-90
2023/06/27 00:54:25;;;;;;;3.55;1.30;;;16.50;99.90;;;;;;5015570;28;20202;-89
2023/06/27 00:56:59;;;;;;;5.72;0.88;;;16.40;99.90;;;;;;5016090;28;20194;-89
2023/06/27 00:59:33;;;;;;;8.43;1.55;;;16.50;99.90;;;;;;5015631;28;20289;-87
2023/06/27 01:02:04;;;;;;;7.13;1.38;;;16.50;99.90;;;;;;5016071;28;20202;-88
2023/06/27 01:04:35;;;;;;;4.05;1.25;;;16.70;99.90;;;;;;5015277;28;20197;-87
2023/06/27 01:07:11;;;;;;;3.40;1.10;;;16.70;99.90;;;;;;5014069;28;20205;-88
2023/06/27 01:09:47;;;;;;;4.85;1.20;;;16.80;99.90;;;;;;5015453;28;20182;-88
2023/06/27 01:12:27;;;;;;;2.25;1.15;;;16.90;99.90;;;;;;5012573;28;20642;-88
2023/06/27 01:15:01;;;;;;;3.58;1.17;;;17.00;99.90;;;;;;5018668;28;20213;-88
2023/06/27 01:17:33;;;;;;;36.78;3.63;;;17.00;99.90;;;;;;5029679;28;20198;-88
2023/06/27 01:20:05;;;;;;;4.30;1.20;;;16.90;99.90;;;;;;5020674;28;20205;-88
2023/06/27 01:22:42;;;;;;;4.78;1.25;;;17.00;99.90;;;;;;5016992;28;20300;-89
2023/06/27 01:25:16;;;;;;;6.38;1.10;;;17.10;99.90;;;;;;5015861;28;20217;-88
2023/06/27 01:27:47;;;;;;;4.53;1.20;;;17.20;99.90;;;;;;5014875;28;20209;-87
2023/06/27 01:30:19;;;;;;;3.15;0.90;;;17.40;99.90;;;;;;5012916;28;20492;-89
2023/06/27 01:32:58;;;;;;;2.25;1.13;;;17.40;99.90;;;;;;5015036;28;20225;-88
2023/06/27 01:35:36;;;;;;;2.78;0.90;;;17.50;99.90;;;;;;5019183;28;20201;-89
2023/06/27 01:38:12;;;;;;;4.00;1.23;;;17.60;99.90;;;;;;5035315;28;20207;-88
2023/06/27 01:40:47;;;;;;;5.82;1.15;;;17.50;99.90;;;;;;5034683;28;20205;-89
2023/06/27 01:43:22;;;;;;;2.30;1.00;;;17.60;99.90;;;;;;5033429;28;20947;-91
2023/06/27 01:45:53;;;;;;;2.75;1.10;;;17.50;99.90;;;;;;5038019;28;20287;-91
2023/06/27 01:48:32;;;;;;;3.85;1.30;;;17.60;99.80;;;;;;5018326;28;20570;-91
2023/06/27 01:51:03;;;;;;;3.15;1.00;;;17.70;99.10;;;;;;5018817;28;20228;-91
2023/06/27 01:53:35;;;;;;;2.45;0.85;;;17.70;99.90;;;;;;5021926;28;20227;-92
2023/06/27 01:56:12;;;;;;;2.22;0.73;;;17.90;99.00;;;;;;5021883;28;20273;-91
2023/06/27 01:58:51;;;;;;;6.57;1.15;;;17.90;99.30;;;;;;5017714;28;20197;-91
2023/06/27 02:01:23;;;;;;;3.85;1.20;;;18.10;97.80;;;;;;5015552;28;20718;-90
2023/06/27 02:03:56;;;;;;;4.35;1.20;;;17.90;98.00;;;;;;5025082;28;20607;-92
2023/06/27 02:06:28;;;;;;;3.25;0.90;;;17.80;98.40;;;;;;5039540;28;20554;-92
2023/06/27 02:09:01;;;;;;;5.68;1.50;;;17.80;97.70;;;;;;5025523;28;20205;-89
2023/06/27 02:11:34;;;;;;;1.85;0.85;;;17.90;97.60;;;;;;5000341;28;20229;-92
2023/06/27 02:14:06;;;;;;;5.07;1.05;;;18.20;98.20;;;;;;4998954;28;20285;-92
2023/06/27 02:16:38;;;;;;;6.57;1.00;;;18.40;98.20;;;;;;5014041;28;20472;-93
2023/06/27 02:19:09;;;;;;;2.80;1.25;;;18.50;97.80;;;;;;5017511;28;20277;-92
2023/06/27 02:21:40;;;;;;;5.60;1.17;;;18.60;96.00;;;;;;5036580;28;20193;-93
2023/06/27 02:24:12;;;;;;;2.67;0.68;;;18.60;95.40;;;;;;5030094;28;20194;-92
2023/06/27 02:26:47;;;;;;;5.10;0.98;;;18.60;96.00;;;;;;5024644;28;20197;-91
2023/06/27 02:29:18;;;;;;;2.70;0.90;;;18.60;96.50;;;;;;5018319;28;20204;-89
2023/06/27 02:31:50;;;;;;;3.28;0.90;;;18.60;96.00;;;;;;5018703;28;20228;-91
2023/06/27 02:34:21;;;;;;;3.33;0.93;;;18.60;95.70;;;;;;5019378;28;20297;-91
2023/06/27 02:36:53;;;;;;;4.35;0.90;;;18.50;95.90;;;;;;5023566;28;20189;-91
2023/06/27 02:39:23;;;;;;;2.70;0.90;;;18.40;94.90;;;;;;5029535;28;20265;-91
2023/06/27 02:41:57;;;;;;;3.95;1.00;;;18.30;96.10;;;;;;5029760;28;20289;-91
2023/06/27 02:44:28;;;;;;;39.40;4.45;;;18.40;96.20;;;;;;5028311;28;20291;-91
2023/06/27 02:47:01;;;;;;;2.28;0.70;;;18.50;96.50;;;;;;5028998;28;20277;-91
2023/06/27 02:49:32;;;;;;;3.75;0.98;;;18.70;96.20;;;;;;5017280;28;20218;-91
2023/06/27 02:52:03;;;;;;;3.55;1.00;;;18.70;95.70;;;;;;5016958;28;20229;-91
2023/06/27 02:54:37;;;;;;;2.33;1.15;;;18.80;95.40;;;;;;5024085;28;20226;-91
2023/06/27 02:57:12;;;;;;;2.72;1.00;;;18.90;95.00;;;;;;5021717;28;20292;-91
2023/06/27 02:59:43;;;;;;;6.68;1.02;;;18.80;94.70;;;;;;5017026;28;20204;-90
2023/06/27 03:02:15;;;;;;;3.97;0.88;;;18.80;94.90;;;;;;5024925;28;20289;-90
2023/06/27 03:04:49;;;;;;;3.50;1.00;;;18.70;94.90;;;;;;5016850;28;20194;-90
2023/06/27 03:07:22;;;;;;;4.38;1.23;;;18.60;94.40;;;;;;5014975;28;20719;-89
2023/06/27 03:09:54;;;;;;;5.45;1.00;;;18.70;94.60;;;;;;4998413;28;20269;-91
2023/06/27 03:12:29;;;;;;;2.35;1.10;;;18.70;95.20;;;;;;5016116;28;20308;-91
2023/06/27 03:15:04;;;;;;;4.53;1.00;;;18.70;94.40;;;;;;5015773;28;20202;-91
2023/06/27 03:17:34;;;;;;;2.85;0.82;;;18.70;94.30;;;;;;5015791;28;20308;-92
2023/06/27 03:20:06;;;;;;;4.32;0.98;;;18.70;94.20;;;;;;5014391;28;20281;-91
2023/06/27 03:22:37;;;;;;;3.63;1.00;;;18.60;94.70;;;;;;5013841;28;20719;-91
2023/06/27 03:25:10;;;;;;;2.20;1.00;;;18.50;94.90;;;;;;5018144;28;20206;-90
2023/06/27 03:27:45;;;;;;;5.72;0.82;;;18.60;94.30;;;;;;5023376;28;20228;-92
2023/06/27 03:30:18;;;;;;;2.92;0.80;;;18.60;93.50;;;;;;5017840;28;20244;-91
2023/06/27 03:32:50;;;;;;;3.00;0.77;;;18.70;93.70;;;;;;5018949;28;20289;-90
2023/06/27 03:35:22;;;;;;;1.65;0.63;;;18.80;94.00;;;;;;5029020;28;20232;-90
2023/06/27 03:37:54;;;;;;;1.70;0.82;;;18.90;93.70;;;;;;5036131;28;20205;-90
2023/06/27 03:40:25;;;;;;;3.22;0.95;;;18.90;93.00;;;;;;5036857;28;20201;-90
2023/06/27 03:43:00;;;;;;;1.33;0.70;;;18.90;91.20;;;;;;5037438;28;20287;-89
2023/06/27 03:45:33;;;;;;;2.30;0.63;;;18.80;90.40;;;;;;5039514;28;20197;-91
2023/06/27 03:48:04;;;;;;;2.00;0.85;;;18.90;89.60;;;;;;5033488;28;20206;-91
2023/06/27 03:50:36;;;;;;;2.45;1.38;;;18.80;89.80;;;;;;5017439;28;20237;-90
2023/06/27 03:53:08;;;;;;;17.58;15.52;;;18.80;89.50;;;;;;5033930;28;20663;-90
2023/06/27 03:55:41;;;;;;;6.15;2.20;;;18.90;90.00;;;;;;5035779;28;20228;-91
2023/06/27 03:58:16;;;;;;;2.00;1.33;;;18.80;90.20;;;;;;5035022;28;20262;-90
2023/06/27 04:00:48;;;;;;;5.75;1.50;;;18.70;90.40;;;;;;5043918;28;20201;-90
2023/06/27 04:03:20;;;;;;;2.35;0.93;;;18.80;90.70;;;;;;5045109;28;20236;-89
2023/06/27 04:05:51;;;;;;;3.20;0.95;;;18.80;91.00;;;;;;5023436;28;20241;-90
2023/06/27 04:08:25;;;;;;;3.53;1.20;;;18.90;90.70;;;;;;5022953;28;20684;-90
2023/06/27 04:10:56;;;;;;;2.67;0.88;;;19.00;90.20;;;;;;5030830;28;20288;-91
2023/06/27 04:13:32;;;;;;;2.45;0.70;;;19.10;89.70;;;;;;5016218;28;20224;-91
2023/06/27 04:16:03;;;;;;;3.58;1.05;;;19.10;89.00;;;;;;5016758;28;20200;-91
2023/06/27 04:18:34;;;;;;;1.83;0.95;;;19.10;87.20;;;;;;5015979;28;20218;-91
2023/06/27 04:21:05;;;;;;;2.95;1.25;;;19.00;87.60;;;;;;5015706;28;20208;-91
2023/06/27 04:23:38;;;;;;;2.80;0.75;;;19.00;88.70;;;;;;5012489;28;20314;-91
2023/06/27 04:26:15;;;;;;;2.10;0.68;;;18.90;88.60;;;;;;5014027;28;20654;-90
2023/06/27 04:28:50;;;;;;;1.40;0.70;;;19.00;89.50;;;;;;5016730;28;20230;-90
2023/06/27 04:31:22;;;;;;;1.20;0.75;;;19.10;89.20;;;;;;5017883;28;20224;-91
2023/06/27 04:33:55;;;;;;;3.35;0.77;;;19.10;87.40;;;;;;5015255;28;20201;-90
2023/06/27 04:36:26;;;;;;;1.00;0.70;;;18.90;87.00;;;;;;4997671;28;20203;-91
2023/06/27 04:38:58;;;;;;;4.13;0.80;;;18.80;88.70;;;;;;4999192;28;20642;-91
2023/06/27 04:41:29;;;;;;;3.60;0.80;;;18.90;88.20;;;;;;5002689;28;20758;-90
2023/06/27 04:44:04;;;;;;;2.45;1.10;;;18.90;88.30;;;;;;5043322;28;20217;-92
2023/06/27 04:46:39;;;;;;;2.03;0.80;;;19.00;86.60;;;;;;5046785;28;20252;-92
2023/06/27 04:49:11;;;;;;;1.60;0.77;;;18.90;86.50;;;;;;5036252;28;20193;-93
2023/06/27 04:51:43;;;;;;;1.92;0.75;;;18.80;86.40;;;;;;5035971;28;20204;-92
2023/06/27 04:54:16;;;;;;;3.00;0.70;;;18.70;86.40;;;;;;5036333;28;20208;-91
2023/06/27 04:56:48;;;;;;;1.63;0.60;;;18.70;87.30;;;;;;5039066;28;20204;-90
2023/06/27 04:59:23;;;;;;;2.20;0.70;;;18.70;87.50;;;;;;5032821;28;20215;-91
2023/06/27 05:01:53;;;;;;;3.85;0.90;;;18.70;89.40;;;;;;5015918;28;20221;-92
2023/06/27 05:04:26;;;;;;;4.05;0.88;;;18.70;87.80;;;;;;5015629;28;20584;-92
2023/06/27 05:06:58;;;;;;;3.60;0.50;;;18.70;88.40;;;;;;5015713;28;20216;-91
2023/06/27 05:09:30;;;;;;;2.65;1.15;;;18.80;88.10;;;;;;5016512;28;20285;-90
2023/06/27 05:12:01;;;;;;;1.65;0.70;;;18.80;88.20;;;;;;5015974;28;20232;-92
2023/06/27 05:14:35;;;;;;;2.17;0.65;;;18.80;87.30;;;;;;5015673;28;20206;-91
2023/06/27 05:17:07;;;;;;;1.27;0.60;;;18.80;86.60;;;;;;5013829;28;20304;-91
2023/06/27 05:19:40;;;;;;;3.33;0.80;;;18.80;87.60;;;;;;5020126;28;20197;-91
2023/06/27 05:22:13;;;;;;;1.75;0.63;;;18.80;88.00;;;;;;5035684;28;20265;-91
2023/06/27 05:24:45;;;;;;;2.95;0.80;;;18.80;88.30;;;;;;5035593;28;20204;-90
2023/06/27 05:27:16;;;;;;;1.45;0.82;;;18.90;89.00;;;;;;5034668;28;20197;-90
2023/06/27 05:29:50;;;;;;;3.22;0.82;;;18.90;89.40;;;;;;5036470;28;20197;-89
2023/06/27 05:32:22;;;;;;;2.58;1.00;;;18.90;89.40;;;;;;5056118;28;20869;-89
2023/06/27 05:34:52;;;;;;;2.35;0.60;;;19.00;89.30;;;;;;5024832;28;20660;-91
2023/06/27 05:37:23;;;;;;;2.03;0.63;;;19.10;88.10;;;;;;5013861;28;20277;-90
2023/06/27 05:39:55;;;;;;;2.38;0.90;;;19.00;87.40;;;;;;5015692;28;20564;-90
2023/06/27 05:42:29;;;;;;;3.20;0.90;;;19.00;88.00;;;;;;5016487;28;20256;-89
2023/06/27 05:45:03;;;;;;;1.80;0.80;;;19.10;88.30;;;;;;5018371;28;20660;-91
2023/06/27 05:47:35;;;;;;;3.08;1.00;;;19.00;88.70;;;;;;5015604;28;20197;-90
2023/06/27 05:50:06;;;;;;;1.83;0.60;;;19.00;88.20;;;;;;5018634;28;20202;-90
2023/06/27 05:52:39;;;;;;;1.80;0.65;;;19.00;86.90;;;;;;5015478;28;20218;-92
2023/06/27 05:55:14;;;;;;;2.00;0.70;;;19.00;86.40;;;;;;5016377;28;20220;-91
2023/06/27 05:57:46;;;;;;;2.70;0.90;;;18.80;85.60;;;;;;5021169;28;20224;-91
2023/06/27 06:00:22;;;;;;;2.25;0.73;;;18.70;87.00;;;;;;5019931;28;20194;-90
2023/06/27 06:02:55;;;;;;;4.43;0.93;;;18.70;87.60;;;;;;5018413;28;20203;-91
2023/06/27 06:05:29;;;;;;;2.00;0.70;;;18.60;87.20;;;;;;5017773;28;20206;-92
2023/06/27 06:08:00;;;;;;;2.53;0.60;;;18.60;87.30;;;;;;5017198;28;20202;-91
2023/06/27 06:10:32;;;;;;;1.40;0.63;;;18.50;87.10;;;;;;5016298;28;20198;-90
2023/06/27 06:13:09;;;;;;;2.72;1.00;;;18.40;88.40;;;;;;5017975;28;20328;-90
2023/06/27 06:15:44;;;;;;;3.95;0.80;;;18.40;87.80;;;;;;5016477;28;20227;-89
2023/06/27 06:18:16;;;;;;;4.85;0.82;;;18.30;88.80;;;;;;5020868;28;20217;-91
2023/06/27 06:20:47;;;;;;;3.45;0.65;;;18.20;88.80;;;;;;5035261;28;20276;-90
2023/06/27 06:23:27;;;;;;;1.73;0.80;;;18.20;89.30;;;;;;5021702;28;20226;-90
2023/06/27 06:26:01;;;;;;;2.38;0.70;;;18.10;89.70;;;;;;5018067;28;20205;-91
2023/06/27 06:28:34;;;;;;;2.38;1.00;;;18.10;90.00;;;;;;5017013;28;20278;-91
2023/06/27 06:31:10;;;;;;;2.88;0.90;;;18.00;90.60;;;;;;5018853;28;20193;-88
2023/06/27 06:33:42;;;;;;;2.85;0.80;;;18.00;90.50;;;;;;5030969;28;20267;-88
2023/06/27 06:36:15;;;;;;;2.72;0.73;;;17.90;90.90;;;;;;5037141;28;20198;-87
2023/06/27 06:41:32;;;;;;;1.48;0.70;;;17.80;91.40;;;;;;5034712;28;20210;-88
2023/06/27 06:44:03;;;;;;;3.25;0.95;;;17.70;90.30;;;;;;5031883;28;20265;-89
2023/06/27 06:46:41;;;;;;;1.58;0.70;;;17.60;90.30;;;;;;5020250;28;20262;-88
2023/06/27 06:49:14;;;;;;;6.25;1.55;;;17.60;90.70;;;;;;5008477;28;20199;-90
2023/06/27 06:51:48;;;;;;;1.90;1.40;;;17.60;90.50;;;;;;4996589;28;20277;-89
2023/06/27 06:54:21;;;;;;;4.60;3.97;;;17.60;90.80;;;;;;4995939;28;20242;-88
2023/06/27 06:56:52;;;;;;;7.68;5.30;;;17.50;91.40;;;;;;4994681;28;20218;-90
2023/06/27 06:59:23;;;;;;;10.80;6.40;;;17.50;92.00;;;;;;5007451;28;20210;-88
2023/06/27 07:01:57;;;;;;;34.35;20.27;;;17.50;92.60;;;;;;5009252;28;20197;-89
2023/06/27 07:04:31;;;;;;;44.83;26.30;;;17.40;92.30;;;;;;4994390;28;20208;-89
2023/06/27 07:07:02;;;;;;;12.07;8.23;;;17.30;92.50;;;;;;4995631;28;20203;-91
2023/06/27 07:09:34;;;;;;;5.18;2.30;;;17.30;93.00;;;;;;5013957;28;20204;-89
2023/06/27 07:12:05;;;;;;;2.92;1.60;;;17.20;92.90;;;;;;5014100;28;20252;-89
2023/06/27 07:14:39;;;;;;;19.40;13.73;;;17.30;93.00;;;;;;5014928;28;20225;-89
2023/06/27 07:17:14;;;;;;;5.78;4.13;;;17.30;93.20;;;;;;5022394;28;20226;-89
2023/06/27 07:19:45;;;;;;;18.38;14.77;;;17.20;93.50;;;;;;5015367;28;20243;-89
2023/06/27 07:22:17;;;;;;;11.27;5.20;;;17.20;93.80;;;;;;5016982;28;20225;-89
2023/06/27 07:24:49;;;;;;;5.55;3.35;;;17.20;94.20;;;;;;5019551;28;20236;-90
2023/06/27 07:27:20;;;;;;;5.30;2.90;;;17.10;94.40;;;;;;5019995;28;20649;-91
2023/06/27 07:29:52;;;;;;;17.00;10.50;;;17.10;95.40;;;;;;5031845;28;20389;-89
2023/06/27 07:32:28;;;;;;;14.23;10.50;;;17.10;96.60;;;;;;5028126;28;20535;-92
2023/06/27 07:35:00;;;;;;;9.05;6.55;;;17.10;97.70;;;;;;5024523;28;20213;-90
2023/06/27 07:37:33;;;;;;;7.03;4.65;;;17.00;98.40;;;;;;5022248;28;20278;-90
2023/06/27 07:40:07;;;;;;;4.93;2.45;;;17.00;98.90;;;;;;5016358;28;20692;-90
2023/06/27 07:42:38;;;;;;;4.38;2.50;;;17.00;97.70;;;;;;5018158;28;20194;-90
2023/06/27 07:45:13;;;;;;;5.47;2.50;;;17.00;96.60;;;;;;5017749;28;20569;-91
2023/06/27 07:47:48;;;;;;;3.72;2.08;;;17.00;96.30;;;;;;5017833;28;20201;-89
2023/06/27 07:50:21;;;;;;;3.35;1.90;;;17.00;97.30;;;;;;5029162;28;20216;-90
2023/06/27 07:52:56;;;;;;;4.03;2.28;;;17.00;98.70;;;;;;5034666;28;20362;-89
2023/06/27 07:55:30;;;;;;;5.75;2.40;;;17.00;98.70;;;;;;5019724;28;20201;-92
2023/06/27 07:58:02;;;;;;;5.18;2.30;;;16.90;98.70;;;;;;5021863;28;20202;-92
2023/06/27 08:00:34;;;;;;;6.28;2.42;;;16.90;99.00;;;;;;5018856;28;20244;-91
2023/06/27 08:03:08;;;;;;;5.82;2.50;;;16.90;99.20;;;;;;5018221;28;20204;-90
2023/06/27 08:05:43;;;;;;;4.82;2.72;;;16.90;99.50;;;;;;5018181;28;20285;-90
2023/06/27 08:08:17;;;;;;;5.82;2.05;;;16.80;99.90;;;;;;5032097;28;20569;-91
2023/06/27 08:10:49;;;;;;;5.13;2.17;;;16.80;99.90;;;;;;5019325;28;20205;-89
2023/06/27 08:13:20;;;;;;;4.18;2.20;;;16.80;99.90;;;;;;5016840;28;20224;-89
2023/06/27 08:15:52;;;;;;;4.82;2.47;;;16.80;99.90;;;;;;5017109;28;20198;-88
2023/06/27 08:18:28;;;;;;;5.40;3.22;;;16.80;99.90;;;;;;5016790;28;20236;-89
2023/06/27 08:21:11;;;;;;;5.47;3.40;;;16.80;99.90;;;;;;5015281;28;20202;-88
2023/06/27 08:23:43;;;;;;;9.07;5.68;;;16.80;99.90;;;;;;5016329;28;20222;-91
2023/06/27 08:26:18;;;;;;;7.13;4.80;;;16.70;99.90;;;;;;5016552;28;20198;-90
2023/06/27 08:28:50;;;;;;;7.43;5.50;;;16.70;99.90;;;;;;5018077;28;20216;-91
2023/06/27 08:31:22;;;;;;;8.02;4.85;;;16.70;99.90;;;;;;5017594;28;20210;-91
2023/06/27 08:33:58;;;;;;;4.53;2.20;;;16.60;99.90;;;;;;5017820;28;20456;-89
2023/06/27 08:36:29;;;;;;;4.75;1.95;;;16.60;99.90;;;;;;5016777;28;20205;-89
2023/06/27 08:38:59;;;;;;;7.43;3.72;;;16.50;99.90;;;;;;5017559;28;20209;-90
2023/06/27 08:41:30;;;;;;;6.80;4.90;;;16.50;99.90;;;;;;5025138;28;20232;-90
2023/06/27 08:44:01;;;;;;;7.75;4.90;;;16.40;99.90;;;;;;5017080;28;20208;-90
2023/06/27 08:46:34;;;;;;;5.13;3.50;;;16.40;99.90;;;;;;5017611;28;20201;-89
2023/06/27 08:49:10;;;;;;;5.75;2.45;;;16.40;99.90;;;;;;5025363;28;20190;-89
2023/06/27 08:51:43;;;;;;;3.95;2.35;;;16.30;99.90;;;;;;5032808;28;20194;-90
2023/06/27 08:54:21;;;;;;;6.70;3.00;;;16.30;99.90;;;;;;5016512;28;20232;-89
2023/06/27 08:56:55;;;;;;;6.00;2.95;;;16.30;99.90;;;;;;5017201;28;20285;-89
2023/06/27 08:59:33;;;;;;;7.97;3.75;;;16.20;99.90;;;;;;5014621;28;20286;-91
2023/06/27 09:02:06;;;;;;;6.18;4.05;;;16.20;99.90;;;;;;5000694;28;20281;-90
2023/06/27 09:04:41;;;;;;;10.30;5.28;;;16.20;99.90;;;;;;5020275;28;20237;-90
2023/06/27 09:07:13;;;;;;;6.50;3.47;;;16.20;99.90;;;;;;5020035;28;20201;-90
2023/06/27 09:09:47;;;;;;;6.00;2.97;;;16.10;99.90;;;;;;5018292;28;20205;-90
2023/06/27 09:12:18;;;;;;;4.50;2.70;;;16.10;99.90;;;;;;5016549;28;20688;-90
2023/06/27 09:14:50;;;;;;;5.93;2.40;;;16.10;99.90;;;;;;5015554;28;20222;-92
2023/06/27 09:17:21;;;;;;;4.75;2.50;;;16.20;99.90;;;;;;5015715;28;20305;-88
2023/06/27 09:19:55;;;;;;;3.67;2.35;;;16.10;99.90;;;;;;5016539;28;20272;-87
2023/06/27 09:22:29;;;;;;;5.30;2.33;;;16.20;99.90;;;;;;5017061;28;20241;-88
2023/06/27 09:25:14;;;;;;;3.22;2.10;;;16.20;99.90;;;;;;5016249;28;20567;-89
2023/06/27 09:27:45;;;;;;;6.20;2.88;;;16.20;99.90;;;;;;5028529;28;20228;-88
2023/06/27 09:30:18;;;;;;;4.32;2.58;;;16.30;99.90;;;;;;5026379;28;20202;-89
2023/06/27 09:33:00;;;;;;;6.43;2.85;;;16.30;99.90;;;;;;5032437;28;20228;-90
2023/06/27 09:35:48;;;;;;;5.97;3.30;;;16.40;99.90;;;;;;5025674;28;20279;-89
2023/06/27 09:38:22;;;;;;;7.47;3.00;;;16.40;99.90;;;;;;5040492;28;20196;-90
2023/06/27 09:41:05;;;;;;;6.45;2.95;;;16.40;99.90;;;;;;5042312;28;20211;-89
2023/06/27 09:43:37;;;;;;;5.72;2.85;;;16.30;99.90;;;;;;5036151;28;20213;-90
2023/06/27 09:46:09;;;;;;;9.25;3.60;;;16.40;99.90;;;;;;5026427;28;20665;-90
2023/06/27 09:48:41;;;;;;;5.80;3.63;;;16.40;99.90;;;;;;5022261;28;20201;-90
2023/06/27 09:51:18;;;;;;;6.40;3.40;;;16.40;99.90;;;;;;5035560;28;20216;-90
2023/06/27 09:54:01;;;;;;;5.22;3.28;;;16.40;99.90;;;;;;5035716;28;20586;-90
2023/06/27 09:56:37;;;;;;;10.65;6.22;;;16.40;99.90;;;;;;5037247;28;20726;-89
2023/06/27 09:59:13;;;;;;;12.75;7.07;;;16.40;99.90;;;;;;5035574;28;20677;-90
2023/06/27 10:01:47;;;;;;;12.48;7.40;;;16.40;99.90;;;;;;5014086;28;20262;-90
2023/06/27 10:04:19;;;;;;;9.98;6.10;;;16.40;99.90;;;;;;5005795;28;20216;-92
2023/06/27 10:06:57;;;;;;;11.35;5.70;;;16.30;99.90;;;;;;5029730;28;20680;-90
2023/06/27 10:09:29;;;;;;;11.10;4.97;;;16.30;99.90;;;;;;5035161;28;20205;-90
2023/06/27 10:12:04;;;;;;;5.28;3.42;;;16.30;99.90;;;;;;4996148;28;20206;-90
2023/06/27 10:14:36;;;;;;;10.00;3.78;;;16.30;99.90;;;;;;4995533;28;20233;-89
2023/06/27 10:17:08;;;;;;;5.85;3.55;;;16.20;99.90;;;;;;4999432;28;20225;-89
2023/06/27 10:19:41;;;;;;;5.40;3.50;;;16.20;99.90;;;;;;5014017;28;20680;-89
2023/06/27 10:22:21;;;;;;;9.30;5.63;;;16.20;99.90;;;;;;5015053;28;20233;-89
2023/06/27 10:24:56;;;;;;;7.72;4.97;;;16.10;99.90;;;;;;5015284;28;20189;-90
2023/06/27 10:27:31;;;;;;;7.65;4.28;;;16.10;99.90;;;;;;5015337;28;20288;-90
2023/06/27 10:30:05;;;;;;;8.38;4.60;;;16.10;99.90;;;;;;5015702;28;20667;-90
2023/06/27 10:32:46;;;;;;;9.10;4.75;;;16.10;99.90;;;;;;5018891;28;20608;-89
2023/06/27 10:35:28;;;;;;;8.20;4.70;;;16.10;99.90;;;;;;5012463;28;20602;-90
2023/06/27 10:38:20;;;;;;;9.52;5.93;;;16.10;99.90;;;;;;4996472;28;20298;-93
2023/06/27 10:41:11;;;;;;;10.15;5.47;;;16.10;99.90;;;;;;5012241;28;20657;-91
2023/06/27 10:43:53;;;;;;;9.73;6.10;;;16.00;99.90;;;;;;5013819;28;20653;-91
2023/06/27 10:46:26;;;;;;;8.48;5.40;;;16.00;99.90;;;;;;5016134;28;20201;-90
2023/06/27 10:49:03;;;;;;;7.55;4.53;;;16.00;99.90;;;;;;5020192;28;20193;-90
2023/06/27 10:51:41;;;;;;;9.20;3.47;;;16.00;99.90;;;;;;5034859;28;20205;-91
2023/06/27 10:54:19;;;;;;;6.63;3.70;;;16.00;99.90;;;;;;5038140;28;20225;-92
2023/06/27 10:59:38;;;;;;;8.13;3.67;;;16.00;99.90;;;;;;5036063;28;20229;-89
2023/06/27 11:02:11;;;;;;;6.47;3.55;;;16.00;99.90;;;;;;5028567;28;20280;-91
2023/06/27 11:04:44;;;;;;;6.93;3.30;;;16.00;99.90;;;;;;5026683;28;20202;-91
2023/06/27 11:07:23;;;;;;;5.07;2.88;;;16.00;99.90;;;;;;5025226;28;20197;-89
2023/06/27 11:09:58;;;;;;;5.25;3.20;;;16.00;99.90;;;;;;5028888;28;20261;-90
2023/06/27 11:12:37;;;;;;;7.80;3.50;;;16.00;99.90;;;;;;5039896;28;20177;-90
2023/06/27 11:15:10;;;;;;;6.55;3.10;;;16.00;99.90;;;;;;5045171;28;20241;-90
2023/06/27 11:17:43;;;;;;;5.47;3.20;;;16.00;99.90;;;;;;5015690;28;20225;-91
2023/06/27 11:20:16;;;;;;;5.93;3.83;;;16.10;99.90;;;;;;5012909;28;20210;-92
2023/06/27 11:22:50;;;;;;;7.38;3.25;;;16.00;99.90;;;;;;5020900;28;20225;-89
2023/06/27 11:32:07;;;;;;;10.80;3.63;;;16.00;99.90;;;;;;5017100;23;20301;-92
2023/06/27 11:38:05;;;;;;;11.60;7.57;;;15.90;99.90;;;;;;5008894;28;20611;-90
2023/06/27 11:47:06;;;;;;;7.03;3.83;;;15.80;99.90;;;;;;5049883;23;20210;-91
2023/06/27 11:53:42;;;;;;;11.30;8.27;;;15.70;99.90;;;;;;4986768;28;20194;-91
2023/06/27 11:56:34;;;;;;;11.32;6.28;;;15.70;99.90;;;;;;5063140;23;20220;-92
2023/06/27 12:02:03;;;;;;;6.90;3.40;;;15.60;99.90;;;;;;4999556;28;20278;-91
2023/06/27 12:04:50;;;;;;;6.35;3.70;;;15.60;99.90;;;;;;5199387;23;20235;-91
2023/06/27 12:10:26;;;;;;;10.05;4.00;;;15.60;99.90;;;;;;5024676;28;20238;-90
2023/06/27 12:13:28;;;;;;;7.28;4.03;;;15.60;99.90;;;;;;5024375;28;20209;-92
2023/06/27 12:16:12;;;;;;;9.88;7.03;;;15.50;99.90;;;;;;5025677;28;20290;-92
2023/06/27 12:19:03;;;;;;;10.80;7.45;;;15.50;99.90;;;;;;5031127;28;20210;-92
2023/06/27 12:22:01;;;;;;;6.40;3.95;;;15.50;99.90;;;;;;5295358;23;20224;-89
2023/06/27 12:25:03;;;;;;;5.80;3.30;;;15.50;99.90;;;;;;5053991;28;20582;-91
2023/06/27 12:31:12;;;;;;;9.63;5.93;;;15.50;99.90;;;;;;5048940;28;20232;-92
2023/06/27 12:58:59;;;;;;;4.82;2.35;;;15.40;99.90;;;;;;5026782;28;20222;-90
2023/06/27 13:04:28;;;;;;;4.88;2.47;;;15.40;99.90;;;;;;5015001;28;20183;-90
2023/06/27 13:07:10;;;;;;;4.25;2.50;;;15.40;99.90;;;;;;5013691;28;20192;-90
2023/06/27 13:09:46;;;;;;;7.53;2.55;;;15.50;99.90;;;;;;5033471;28;20249;-91
2023/06/27 13:12:21;;;;;;;4.40;2.13;;;15.50;99.90;;;;;;5029562;28;20212;-91
2023/06/27 13:15:06;;;;;;;6.85;2.88;;;15.50;99.90;;;;;;5017050;28;20214;-90
2023/06/27 13:17:41;;;;;;;6.00;2.78;;;15.50;99.90;;;;;;5007682;28;20198;-89
2023/06/27 13:20:20;;;;;;;5.72;2.50;;;15.40;99.90;;;;;;4994490;28;20195;-92
2023/06/27 13:22:51;;;;;;;6.13;2.60;;;15.50;99.90;;;;;;4999324;28;20292;-90
2023/06/27 13:25:22;;;;;;;11.15;2.97;;;15.50;99.90;;;;;;5019424;28;20209;-91
2023/06/27 13:27:54;;;;;;;5.85;2.55;;;15.60;99.90;;;;;;5020342;28;20202;-91
2023/06/27 13:30:27;;;;;;;5.88;2.47;;;15.50;99.90;;;;;;5030437;28;20202;-91
2023/06/27 13:32:58;;;;;;;6.55;2.70;;;15.50;99.90;;;;;;5023630;28;20201;-92
2023/06/27 13:35:33;;;;;;;6.05;2.97;;;15.50;99.90;;;;;;5016475;28;20313;-91
2023/06/27 13:38:05;;;;;;;6.88;2.92;;;15.50;99.90;;;;;;5015653;28;20300;-92
2023/06/27 13:40:38;;;;;;;6.20;2.75;;;15.40;99.90;;;;;;5018269;28;20699;-91
2023/06/27 13:43:09;;;;;;;6.25;2.53;;;15.30;99.90;;;;;;5019415;28;20688;-89
2023/06/27 13:45:40;;;;;;;5.47;2.45;;;15.20;99.90;;;;;;5022538;28;20201;-91
2023/06/27 13:48:13;;;;;;;7.88;2.97;;;15.20;99.90;;;;;;5032716;28;20232;-91
2023/06/27 13:50:53;;;;;;;6.35;2.47;;;15.20;99.90;;;;;;5020888;28;20214;-91
2023/06/27 13:53:25;;;;;;;6.97;2.40;;;15.10;99.90;;;;;;5020569;28;20205;-91
2023/06/27 13:55:58;;;;;;;6.80;2.60;;;15.10;99.90;;;;;;5018370;28;20232;-90
2023/06/27 13:58:39;;;;;;;5.32;2.35;;;15.10;99.90;;;;;;5001931;28;20288;-90
2023/06/27 14:01:10;;;;;;;5.43;2.15;;;15.10;99.90;;;;;;5020028;28;20202;-90
2023/06/27 14:03:42;;;;;;;6.13;2.30;;;15.10;99.90;;;;;;5016581;28;20280;-91
2023/06/27 14:06:17;;;;;;;5.25;2.10;;;15.10;99.90;;;;;;5017983;28;20205;-90
2023/06/27 14:08:50;;;;;;;4.20;1.88;;;15.00;99.90;;;;;;5016508;28;20204;-90
2023/06/27 14:11:23;;;;;;;3.95;1.83;;;15.10;99.90;;;;;;5021635;28;20208;-89
2023/06/27 14:13:55;;;;;;;5.10;1.70;;;15.00;99.90;;;;;;5019635;28;20202;-90
2023/06/27 14:16:25;;;;;;;5.97;2.42;;;15.10;99.90;;;;;;5016875;28;20619;-91
2023/06/27 14:18:58;;;;;;;4.97;2.00;;;15.20;99.90;;;;;;5005044;28;20198;-91
2023/06/27 14:21:33;;;;;;;4.70;2.05;;;15.10;99.90;;;;;;5011656;28;20241;-91
2023/06/27 14:24:06;;;;;;;6.53;2.20;;;15.10;99.90;;;;;;5017168;28;20562;-91